sensor_id;sensor_type;location;lat;lon;timestamp;P1;durP1;ratioP1;P2;durP2;ratioP2
30617;SDS011;17384;51.214;9.202;2023-04-24T00:00:31;5.57;;;1.30;;
30617;SDS011;17384;51.214;9.202;2023-04-24T00:02:56;2.25;;;1.33;;
30617;SDS011;17384;51.214;9.202;2023-04-24T00:05:23;1.55;;;1.30;;
30617;SDS011;17384;51.214;9.202;2023-04-24T00:07:49;1.52;;;1.38;;
30617;SDS011;17384;51.214;9.202;2023-04-24T00:10:17;4.88;;;1.40;;
30617;SDS011;17384;51.214;9.202;2023-04-24T00:12:43;2.03;;;1.35;;
30617;SDS011;17384;51.214;9.202;2023-04-24T00:15:09;1.77;;;1.35;;
30617;SDS011;17384;51.214;9.202;2023-04-24T00:17:35;2.60;;;1.67;;
30617;SDS011;17384;51.214;9.202;2023-04-24T00:20:01;6.80;;;1.75;;
30617;SDS011;17384;51.214;9.202;2023-04-24T00:22:30;3.25;;;1.40;;
30617;SDS011;17384;51.214;9.202;2023-04-24T00:24:56;2.92;;;1.35;;
30617;SDS011;17384;51.214;9.202;2023-04-24T00:27:21;3.33;;;1.40;;
30617;SDS011;17384;51.214;9.202;2023-04-24T00:29:47;2.65;;;1.45;;
30617;SDS011;17384;51.214;9.202;2023-04-24T00:32:13;3.53;;;1.55;;
30617;SDS011;17384;51.214;9.202;2023-04-24T00:34:39;2.70;;;1.30;;
30617;SDS011;17384;51.214;9.202;2023-04-24T00:37:04;1.88;;;1.30;;
30617;SDS011;17384;51.214;9.202;2023-04-24T00:39:31;2.35;;;1.50;;
30617;SDS011;17384;51.214;9.202;2023-04-24T00:41:56;1.58;;;1.10;;
30617;SDS011;17384;51.214;9.202;2023-04-24T00:44:22;3.53;;;1.35;;
30617;SDS011;17384;51.214;9.202;2023-04-24T00:46:47;1.60;;;1.33;;
30617;SDS011;17384;51.214;9.202;2023-04-24T00:49:17;2.30;;;1.35;;
30617;SDS011;17384;51.214;9.202;2023-04-24T00:51:43;1.48;;;1.20;;
30617;SDS011;17384;51.214;9.202;2023-04-24T00:54:10;1.88;;;1.20;;
30617;SDS011;17384;51.214;9.202;2023-04-24T00:56:36;1.77;;;1.17;;
30617;SDS011;17384;51.214;9.202;2023-04-24T00:59:02;2.47;;;1.30;;
30617;SDS011;17384;51.214;9.202;2023-04-24T01:01:29;3.20;;;1.30;;
30617;SDS011;17384;51.214;9.202;2023-04-24T01:03:55;7.78;;;1.50;;
30617;SDS011;17384;51.214;9.202;2023-04-24T01:06:22;5.28;;;1.35;;
30617;SDS011;17384;51.214;9.202;2023-04-24T01:08:52;1.40;;;1.10;;
30617;SDS011;17384;51.214;9.202;2023-04-24T01:11:18;3.40;;;1.50;;
30617;SDS011;17384;51.214;9.202;2023-04-24T01:13:43;4.10;;;1.55;;
30617;SDS011;17384;51.214;9.202;2023-04-24T01:16:10;2.55;;;1.20;;
30617;SDS011;17384;51.214;9.202;2023-04-24T01:18:35;2.63;;;1.42;;
30617;SDS011;17384;51.214;9.202;2023-04-24T01:21:02;2.30;;;1.50;;
30617;SDS011;17384;51.214;9.202;2023-04-24T01:23:29;3.42;;;1.73;;
30617;SDS011;17384;51.214;9.202;2023-04-24T01:25:55;5.25;;;1.50;;
30617;SDS011;17384;51.214;9.202;2023-04-24T01:28:21;5.35;;;1.38;;
30617;SDS011;17384;51.214;9.202;2023-04-24T01:30:46;2.90;;;1.48;;
30617;SDS011;17384;51.214;9.202;2023-04-24T01:33:12;6.28;;;1.65;;
30617;SDS011;17384;51.214;9.202;2023-04-24T01:35:38;3.78;;;1.73;;
30617;SDS011;17384;51.214;9.202;2023-04-24T01:38:04;1.75;;;1.42;;
30617;SDS011;17384;51.214;9.202;2023-04-24T01:40:30;1.70;;;1.40;;
30617;SDS011;17384;51.214;9.202;2023-04-24T01:42:57;10.18;;;2.05;;
30617;SDS011;17384;51.214;9.202;2023-04-24T01:45:23;4.63;;;2.22;;
30617;SDS011;17384;51.214;9.202;2023-04-24T01:47:49;4.60;;;2.80;;
30617;SDS011;17384;51.214;9.202;2023-04-24T01:50:15;5.07;;;3.45;;
30617;SDS011;17384;51.214;9.202;2023-04-24T01:52:41;4.22;;;3.20;;
30617;SDS011;17384;51.214;9.202;2023-04-24T01:55:06;5.20;;;3.38;;
30617;SDS011;17384;51.214;9.202;2023-04-24T01:57:32;6.35;;;2.95;;
30617;SDS011;17384;51.214;9.202;2023-04-24T01:59:59;6.35;;;3.85;;
30617;SDS011;17384;51.214;9.202;2023-04-24T02:02:24;6.13;;;3.80;;
30617;SDS011;17384;51.214;9.202;2023-04-24T02:04:52;6.63;;;4.10;;
30617;SDS011;17384;51.214;9.202;2023-04-24T02:07:18;6.97;;;3.92;;
30617;SDS011;17384;51.214;9.202;2023-04-24T02:09:44;6.68;;;4.30;;
30617;SDS011;17384;51.214;9.202;2023-04-24T02:12:09;9.15;;;3.92;;
30617;SDS011;17384;51.214;9.202;2023-04-24T02:14:35;6.13;;;3.75;;
30617;SDS011;17384;51.214;9.202;2023-04-24T02:17:00;5.38;;;3.92;;
30617;SDS011;17384;51.214;9.202;2023-04-24T02:19:26;7.32;;;4.13;;
30617;SDS011;17384;51.214;9.202;2023-04-24T02:21:51;5.03;;;3.08;;
30617;SDS011;17384;51.214;9.202;2023-04-24T02:24:17;5.22;;;3.25;;
30617;SDS011;17384;51.214;9.202;2023-04-24T02:26:42;3.13;;;2.70;;
30617;SDS011;17384;51.214;9.202;2023-04-24T02:29:08;4.43;;;3.20;;
30617;SDS011;17384;51.214;9.202;2023-04-24T02:31:33;5.10;;;2.95;;
30617;SDS011;17384;51.214;9.202;2023-04-24T02:33:59;4.35;;;2.85;;
30617;SDS011;17384;51.214;9.202;2023-04-24T02:36:24;5.43;;;3.17;;
30617;SDS011;17384;51.214;9.202;2023-04-24T02:38:50;3.97;;;2.58;;
30617;SDS011;17384;51.214;9.202;2023-04-24T02:41:15;5.60;;;2.75;;
30617;SDS011;17384;51.214;9.202;2023-04-24T02:43:41;4.97;;;2.80;;
30617;SDS011;17384;51.214;9.202;2023-04-24T02:46:06;5.43;;;2.55;;
30617;SDS011;17384;51.214;9.202;2023-04-24T02:48:32;2.88;;;2.28;;
30617;SDS011;17384;51.214;9.202;2023-04-24T02:50:57;5.10;;;2.53;;
30617;SDS011;17384;51.214;9.202;2023-04-24T02:53:23;4.88;;;2.83;;
30617;SDS011;17384;51.214;9.202;2023-04-24T02:55:48;3.47;;;2.55;;
30617;SDS011;17384;51.214;9.202;2023-04-24T02:58:14;6.78;;;2.60;;
30617;SDS011;17384;51.214;9.202;2023-04-24T03:00:40;5.22;;;2.50;;
30617;SDS011;17384;51.214;9.202;2023-04-24T03:03:06;6.45;;;3.17;;
30617;SDS011;17384;51.214;9.202;2023-04-24T03:05:32;4.50;;;2.60;;
30617;SDS011;17384;51.214;9.202;2023-04-24T03:07:57;6.85;;;2.80;;
30617;SDS011;17384;51.214;9.202;2023-04-24T03:10:22;4.78;;;2.38;;
30617;SDS011;17384;51.214;9.202;2023-04-24T03:12:48;5.05;;;2.58;;
30617;SDS011;17384;51.214;9.202;2023-04-24T03:15:14;3.15;;;2.60;;
30617;SDS011;17384;51.214;9.202;2023-04-24T03:17:39;3.83;;;2.65;;
30617;SDS011;17384;51.214;9.202;2023-04-24T03:20:05;4.32;;;2.47;;
30617;SDS011;17384;51.214;9.202;2023-04-24T03:22:33;5.63;;;2.60;;
30617;SDS011;17384;51.214;9.202;2023-04-24T03:24:59;7.60;;;3.10;;
30617;SDS011;17384;51.214;9.202;2023-04-24T03:27:24;4.43;;;2.80;;
30617;SDS011;17384;51.214;9.202;2023-04-24T03:29:50;4.93;;;2.70;;
30617;SDS011;17384;51.214;9.202;2023-04-24T03:32:20;2.75;;;2.50;;
30617;SDS011;17384;51.214;9.202;2023-04-24T03:34:47;2.85;;;2.58;;
30617;SDS011;17384;51.214;9.202;2023-04-24T03:37:13;4.80;;;2.88;;
30617;SDS011;17384;51.214;9.202;2023-04-24T03:39:38;2.65;;;2.45;;
30617;SDS011;17384;51.214;9.202;2023-04-24T03:42:03;8.88;;;3.10;;
30617;SDS011;17384;51.214;9.202;2023-04-24T03:44:29;3.47;;;2.63;;
30617;SDS011;17384;51.214;9.202;2023-04-24T03:46:54;3.63;;;2.33;;
30617;SDS011;17384;51.214;9.202;2023-04-24T03:49:20;4.97;;;3.00;;
30617;SDS011;17384;51.214;9.202;2023-04-24T03:51:45;5.75;;;3.10;;
30617;SDS011;17384;51.214;9.202;2023-04-24T03:54:11;8.25;;;3.10;;
30617;SDS011;17384;51.214;9.202;2023-04-24T03:56:36;6.40;;;3.15;;
30617;SDS011;17384;51.214;9.202;2023-04-24T03:59:02;4.25;;;2.92;;
30617;SDS011;17384;51.214;9.202;2023-04-24T04:01:27;2.90;;;2.70;;
30617;SDS011;17384;51.214;9.202;2023-04-24T04:03:53;4.60;;;3.25;;
30617;SDS011;17384;51.214;9.202;2023-04-24T04:06:18;6.10;;;2.80;;
30617;SDS011;17384;51.214;9.202;2023-04-24T04:08:44;3.63;;;2.90;;
30617;SDS011;17384;51.214;9.202;2023-04-24T04:11:10;3.35;;;2.63;;
30617;SDS011;17384;51.214;9.202;2023-04-24T04:13:35;3.20;;;2.83;;
30617;SDS011;17384;51.214;9.202;2023-04-24T04:16:01;4.72;;;2.83;;
30617;SDS011;17384;51.214;9.202;2023-04-24T04:18:26;5.18;;;3.00;;
30617;SDS011;17384;51.214;9.202;2023-04-24T04:20:52;3.55;;;2.55;;
30617;SDS011;17384;51.214;9.202;2023-04-24T04:23:17;6.40;;;3.25;;
30617;SDS011;17384;51.214;9.202;2023-04-24T04:25:42;4.18;;;2.63;;
30617;SDS011;17384;51.214;9.202;2023-04-24T04:28:08;2.90;;;2.55;;
30617;SDS011;17384;51.214;9.202;2023-04-24T04:30:33;5.47;;;2.58;;
30617;SDS011;17384;51.214;9.202;2023-04-24T04:32:59;3.35;;;2.90;;
30617;SDS011;17384;51.214;9.202;2023-04-24T04:35:25;2.90;;;2.22;;
30617;SDS011;17384;51.214;9.202;2023-04-24T04:37:50;3.80;;;2.90;;
30617;SDS011;17384;51.214;9.202;2023-04-24T04:40:16;4.35;;;2.47;;
30617;SDS011;17384;51.214;9.202;2023-04-24T04:42:42;2.85;;;2.33;;
30617;SDS011;17384;51.214;9.202;2023-04-24T04:45:10;3.35;;;2.35;;
30617;SDS011;17384;51.214;9.202;2023-04-24T04:47:37;3.97;;;2.55;;
30617;SDS011;17384;51.214;9.202;2023-04-24T04:50:03;3.15;;;2.65;;
30617;SDS011;17384;51.214;9.202;2023-04-24T04:52:30;5.15;;;2.15;;
30617;SDS011;17384;51.214;9.202;2023-04-24T04:54:56;2.35;;;2.15;;
30617;SDS011;17384;51.214;9.202;2023-04-24T04:57:21;2.47;;;2.05;;
30617;SDS011;17384;51.214;9.202;2023-04-24T04:59:46;3.90;;;2.13;;
30617;SDS011;17384;51.214;9.202;2023-04-24T05:02:12;2.42;;;1.90;;
30617;SDS011;17384;51.214;9.202;2023-04-24T05:04:37;2.30;;;2.10;;
30617;SDS011;17384;51.214;9.202;2023-04-24T05:07:03;2.90;;;2.17;;
30617;SDS011;17384;51.214;9.202;2023-04-24T05:09:28;2.38;;;2.17;;
30617;SDS011;17384;51.214;9.202;2023-04-24T05:11:54;3.30;;;2.45;;
30617;SDS011;17384;51.214;9.202;2023-04-24T05:14:21;4.40;;;2.42;;
30617;SDS011;17384;51.214;9.202;2023-04-24T05:16:46;1.88;;;1.75;;
30617;SDS011;17384;51.214;9.202;2023-04-24T05:19:12;5.20;;;2.30;;
30617;SDS011;17384;51.214;9.202;2023-04-24T05:21:39;3.95;;;2.15;;
30617;SDS011;17384;51.214;9.202;2023-04-24T05:24:04;3.03;;;2.30;;
30617;SDS011;17384;51.214;9.202;2023-04-24T05:26:30;2.83;;;2.53;;
30617;SDS011;17384;51.214;9.202;2023-04-24T05:28:56;4.97;;;2.95;;
30617;SDS011;17384;51.214;9.202;2023-04-24T05:31:21;4.57;;;3.70;;
30617;SDS011;17384;51.214;9.202;2023-04-24T05:33:47;6.32;;;4.13;;
30617;SDS011;17384;51.214;9.202;2023-04-24T05:36:12;4.50;;;3.78;;
30617;SDS011;17384;51.214;9.202;2023-04-24T05:38:38;6.45;;;4.22;;
30617;SDS011;17384;51.214;9.202;2023-04-24T05:41:03;9.32;;;5.28;;
30617;SDS011;17384;51.214;9.202;2023-04-24T05:43:29;8.00;;;4.57;;
30617;SDS011;17384;51.214;9.202;2023-04-24T05:45:54;8.88;;;4.90;;
30617;SDS011;17384;51.214;9.202;2023-04-24T05:48:20;7.13;;;4.55;;
30617;SDS011;17384;51.214;9.202;2023-04-24T05:50:47;8.90;;;4.78;;
30617;SDS011;17384;51.214;9.202;2023-04-24T05:53:13;5.85;;;4.50;;
30617;SDS011;17384;51.214;9.202;2023-04-24T05:55:38;5.53;;;4.10;;
30617;SDS011;17384;51.214;9.202;2023-04-24T05:58:04;6.70;;;4.32;;
30617;SDS011;17384;51.214;9.202;2023-04-24T06:00:29;6.40;;;4.85;;
30617;SDS011;17384;51.214;9.202;2023-04-24T06:02:55;10.00;;;6.38;;
30617;SDS011;17384;51.214;9.202;2023-04-24T06:05:21;7.22;;;5.72;;
30617;SDS011;17384;51.214;9.202;2023-04-24T06:07:47;10.38;;;5.32;;
30617;SDS011;17384;51.214;9.202;2023-04-24T06:10:13;8.15;;;5.05;;
30617;SDS011;17384;51.214;9.202;2023-04-24T06:12:38;10.30;;;5.28;;
30617;SDS011;17384;51.214;9.202;2023-04-24T06:15:04;7.15;;;4.88;;
30617;SDS011;17384;51.214;9.202;2023-04-24T06:17:30;6.30;;;5.00;;
30617;SDS011;17384;51.214;9.202;2023-04-24T06:19:57;7.10;;;4.30;;
30617;SDS011;17384;51.214;9.202;2023-04-24T06:22:22;5.85;;;4.95;;
30617;SDS011;17384;51.214;9.202;2023-04-24T06:24:48;9.18;;;5.05;;
30617;SDS011;17384;51.214;9.202;2023-04-24T06:27:13;10.00;;;4.90;;
30617;SDS011;17384;51.214;9.202;2023-04-24T06:29:40;8.73;;;4.30;;
30617;SDS011;17384;51.214;9.202;2023-04-24T06:32:06;5.78;;;4.25;;
30617;SDS011;17384;51.214;9.202;2023-04-24T06:34:33;13.70;;;4.70;;
30617;SDS011;17384;51.214;9.202;2023-04-24T06:37:00;5.15;;;4.25;;
30617;SDS011;17384;51.214;9.202;2023-04-24T06:39:26;5.60;;;3.40;;
30617;SDS011;17384;51.214;9.202;2023-04-24T06:41:51;5.38;;;3.15;;
30617;SDS011;17384;51.214;9.202;2023-04-24T06:44:17;4.57;;;3.72;;
30617;SDS011;17384;51.214;9.202;2023-04-24T06:46:42;5.20;;;4.15;;
30617;SDS011;17384;51.214;9.202;2023-04-24T06:49:09;6.22;;;4.15;;
30617;SDS011;17384;51.214;9.202;2023-04-24T06:51:34;4.97;;;3.75;;
30617;SDS011;17384;51.214;9.202;2023-04-24T06:54:00;5.70;;;3.65;;
30617;SDS011;17384;51.214;9.202;2023-04-24T06:56:26;4.30;;;3.38;;
30617;SDS011;17384;51.214;9.202;2023-04-24T06:58:51;7.40;;;4.20;;
30617;SDS011;17384;51.214;9.202;2023-04-24T07:01:17;7.93;;;4.88;;
30617;SDS011;17384;51.214;9.202;2023-04-24T07:03:42;6.80;;;4.60;;
30617;SDS011;17384;51.214;9.202;2023-04-24T07:06:08;6.47;;;4.20;;
30617;SDS011;17384;51.214;9.202;2023-04-24T07:08:35;7.18;;;5.30;;
30617;SDS011;17384;51.214;9.202;2023-04-24T07:11:01;7.43;;;4.72;;
30617;SDS011;17384;51.214;9.202;2023-04-24T07:13:27;7.05;;;4.45;;
30617;SDS011;17384;51.214;9.202;2023-04-24T07:15:53;6.93;;;4.93;;
30617;SDS011;17384;51.214;9.202;2023-04-24T07:18:20;7.28;;;5.10;;
30617;SDS011;17384;51.214;9.202;2023-04-24T07:20:46;9.38;;;5.28;;
30617;SDS011;17384;51.214;9.202;2023-04-24T07:23:11;8.18;;;4.97;;
30617;SDS011;17384;51.214;9.202;2023-04-24T07:25:37;7.40;;;5.10;;
30617;SDS011;17384;51.214;9.202;2023-04-24T07:28:03;5.65;;;4.53;;
30617;SDS011;17384;51.214;9.202;2023-04-24T07:30:29;9.88;;;4.78;;
30617;SDS011;17384;51.214;9.202;2023-04-24T07:32:55;16.70;;;6.72;;
30617;SDS011;17384;51.214;9.202;2023-04-24T07:35:21;7.30;;;4.60;;
30617;SDS011;17384;51.214;9.202;2023-04-24T07:37:46;13.25;;;4.93;;
30617;SDS011;17384;51.214;9.202;2023-04-24T07:40:12;10.43;;;5.30;;
30617;SDS011;17384;51.214;9.202;2023-04-24T07:42:38;9.85;;;4.68;;
30617;SDS011;17384;51.214;9.202;2023-04-24T07:45:04;6.53;;;4.47;;
30617;SDS011;17384;51.214;9.202;2023-04-24T07:47:30;9.13;;;4.88;;
30617;SDS011;17384;51.214;9.202;2023-04-24T07:49:57;7.38;;;4.07;;
30617;SDS011;17384;51.214;9.202;2023-04-24T07:52:23;7.68;;;4.75;;
30617;SDS011;17384;51.214;9.202;2023-04-24T07:54:48;5.20;;;4.43;;
30617;SDS011;17384;51.214;9.202;2023-04-24T07:57:15;5.55;;;4.32;;
30617;SDS011;17384;51.214;9.202;2023-04-24T08:02:14;8.43;;;4.97;;
30617;SDS011;17384;51.214;9.202;2023-04-24T08:04:40;7.05;;;3.72;;
30617;SDS011;17384;51.214;9.202;2023-04-24T08:07:05;10.55;;;5.35;;
30617;SDS011;17384;51.214;9.202;2023-04-24T08:09:31;8.57;;;5.45;;
30617;SDS011;17384;51.214;9.202;2023-04-24T08:11:56;10.27;;;5.78;;
30617;SDS011;17384;51.214;9.202;2023-04-24T08:14:22;7.68;;;4.45;;
30617;SDS011;17384;51.214;9.202;2023-04-24T08:16:47;8.35;;;4.35;;
30617;SDS011;17384;51.214;9.202;2023-04-24T08:19:22;6.55;;;4.72;;
30617;SDS011;17384;51.214;9.202;2023-04-24T08:21:47;8.93;;;5.00;;
30617;SDS011;17384;51.214;9.202;2023-04-24T08:24:13;6.65;;;4.57;;
30617;SDS011;17384;51.214;9.202;2023-04-24T08:26:39;6.55;;;5.22;;
30617;SDS011;17384;51.214;9.202;2023-04-24T08:29:04;9.25;;;5.43;;
30617;SDS011;17384;51.214;9.202;2023-04-24T08:31:31;8.02;;;5.18;;
30617;SDS011;17384;51.214;9.202;2023-04-24T08:33:57;7.85;;;5.18;;
30617;SDS011;17384;51.214;9.202;2023-04-24T08:36:24;7.80;;;4.57;;
30617;SDS011;17384;51.214;9.202;2023-04-24T08:38:51;6.47;;;5.00;;
30617;SDS011;17384;51.214;9.202;2023-04-24T08:41:16;5.35;;;4.50;;
30617;SDS011;17384;51.214;9.202;2023-04-24T08:43:43;8.00;;;4.50;;
30617;SDS011;17384;51.214;9.202;2023-04-24T08:46:11;8.32;;;4.82;;
30617;SDS011;17384;51.214;9.202;2023-04-24T08:48:38;5.97;;;4.18;;
30617;SDS011;17384;51.214;9.202;2023-04-24T08:51:08;6.43;;;4.32;;
30617;SDS011;17384;51.214;9.202;2023-04-24T08:53:34;7.40;;;4.65;;
30617;SDS011;17384;51.214;9.202;2023-04-24T08:56:00;5.72;;;3.75;;
30617;SDS011;17384;51.214;9.202;2023-04-24T08:58:26;5.63;;;4.20;;
30617;SDS011;17384;51.214;9.202;2023-04-24T09:00:56;6.10;;;4.00;;
30617;SDS011;17384;51.214;9.202;2023-04-24T09:03:22;4.47;;;3.55;;
30617;SDS011;17384;51.214;9.202;2023-04-24T09:05:55;4.47;;;3.42;;
30617;SDS011;17384;51.214;9.202;2023-04-24T09:08:35;8.00;;;4.10;;
30617;SDS011;17384;51.214;9.202;2023-04-24T09:11:01;6.53;;;2.95;;
30617;SDS011;17384;51.214;9.202;2023-04-24T09:13:28;7.35;;;3.70;;
30617;SDS011;17384;51.214;9.202;2023-04-24T09:15:55;5.43;;;2.90;;
30617;SDS011;17384;51.214;9.202;2023-04-24T09:18:22;4.70;;;3.05;;
30617;SDS011;17384;51.214;9.202;2023-04-24T09:20:57;4.40;;;3.28;;
30617;SDS011;17384;51.214;9.202;2023-04-24T09:23:28;4.38;;;2.80;;
30617;SDS011;17384;51.214;9.202;2023-04-24T09:25:55;3.33;;;2.65;;
30617;SDS011;17384;51.214;9.202;2023-04-24T09:28:25;8.27;;;2.60;;
30617;SDS011;17384;51.214;9.202;2023-04-24T09:31:04;3.47;;;2.88;;
30617;SDS011;17384;51.214;9.202;2023-04-24T09:33:35;2.83;;;2.35;;
30617;SDS011;17384;51.214;9.202;2023-04-24T09:36:02;3.88;;;2.80;;
30617;SDS011;17384;51.214;9.202;2023-04-24T09:38:37;3.63;;;2.63;;
30617;SDS011;17384;51.214;9.202;2023-04-24T09:41:07;3.83;;;2.53;;
30617;SDS011;17384;51.214;9.202;2023-04-24T09:43:34;7.20;;;2.75;;
30617;SDS011;17384;51.214;9.202;2023-04-24T09:46:04;3.88;;;2.70;;
30617;SDS011;17384;51.214;9.202;2023-04-24T09:48:34;8.75;;;2.67;;
30617;SDS011;17384;51.214;9.202;2023-04-24T09:51:03;3.22;;;2.20;;
30617;SDS011;17384;51.214;9.202;2023-04-24T09:53:32;3.70;;;2.60;;
30617;SDS011;17384;51.214;9.202;2023-04-24T09:56:07;4.25;;;2.47;;
30617;SDS011;17384;51.214;9.202;2023-04-24T09:58:34;3.03;;;1.98;;
30617;SDS011;17384;51.214;9.202;2023-04-24T10:01:00;3.10;;;2.30;;
30617;SDS011;17384;51.214;9.202;2023-04-24T10:03:29;4.80;;;2.30;;
30617;SDS011;17384;51.214;9.202;2023-04-24T10:05:58;3.38;;;2.20;;
30617;SDS011;17384;51.214;9.202;2023-04-24T10:08:24;2.53;;;2.30;;
30617;SDS011;17384;51.214;9.202;2023-04-24T10:10:51;2.97;;;2.22;;
30617;SDS011;17384;51.214;9.202;2023-04-24T10:13:17;2.35;;;1.83;;
30617;SDS011;17384;51.214;9.202;2023-04-24T10:15:43;4.07;;;2.03;;
30617;SDS011;17384;51.214;9.202;2023-04-24T10:18:09;3.75;;;2.20;;
30617;SDS011;17384;51.214;9.202;2023-04-24T10:20:38;1.88;;;1.70;;
30617;SDS011;17384;51.214;9.202;2023-04-24T10:23:04;2.20;;;2.00;;
30617;SDS011;17384;51.214;9.202;2023-04-24T10:25:31;2.70;;;2.10;;
30617;SDS011;17384;51.214;9.202;2023-04-24T10:27:59;2.22;;;1.60;;
30617;SDS011;17384;51.214;9.202;2023-04-24T10:30:29;4.68;;;2.55;;
30617;SDS011;17384;51.214;9.202;2023-04-24T10:32:59;1.60;;;1.40;;
30617;SDS011;17384;51.214;9.202;2023-04-24T10:35:26;1.55;;;1.20;;
30617;SDS011;17384;51.214;9.202;2023-04-24T10:38:01;1.98;;;1.30;;
30617;SDS011;17384;51.214;9.202;2023-04-24T10:40:33;1.45;;;1.13;;
30617;SDS011;17384;51.214;9.202;2023-04-24T10:43:02;1.77;;;1.10;;
30617;SDS011;17384;51.214;9.202;2023-04-24T10:45:32;1.30;;;1.20;;
30617;SDS011;17384;51.214;9.202;2023-04-24T10:47:59;1.88;;;1.27;;
30617;SDS011;17384;51.214;9.202;2023-04-24T10:50:52;0.80;;;0.80;;
30617;SDS011;17384;51.214;9.202;2023-04-24T10:53:19;1.10;;;1.10;;
30617;SDS011;17384;51.214;9.202;2023-04-24T10:55:51;0.82;;;0.82;;
30617;SDS011;17384;51.214;9.202;2023-04-24T10:58:50;3.47;;;0.98;;
30617;SDS011;17384;51.214;9.202;2023-04-24T11:03:54;0.57;;;0.57;;
30617;SDS011;17384;51.214;9.202;2023-04-24T11:06:36;0.47;;;0.47;;
30617;SDS011;17384;51.214;9.202;2023-04-24T11:11:34;0.40;;;0.40;;
30617;SDS011;17384;51.214;9.202;2023-04-24T11:14:02;0.40;;;0.40;;
30617;SDS011;17384;51.214;9.202;2023-04-24T11:16:34;0.63;;;0.60;;
30617;SDS011;17384;51.214;9.202;2023-04-24T11:19:22;0.50;;;0.50;;
30617;SDS011;17384;51.214;9.202;2023-04-24T11:21:54;0.50;;;0.50;;
30617;SDS011;17384;51.214;9.202;2023-04-24T11:24:30;0.70;;;0.70;;
30617;SDS011;17384;51.214;9.202;2023-04-24T11:29:40;0.60;;;0.60;;
30617;SDS011;17384;51.214;9.202;2023-04-24T11:34:57;1.08;;;0.50;;
30617;SDS011;17384;51.214;9.202;2023-04-24T11:37:24;0.57;;;0.57;;
30617;SDS011;17384;51.214;9.202;2023-04-24T11:39:57;0.60;;;0.60;;
30617;SDS011;17384;51.214;9.202;2023-04-24T11:42:23;0.50;;;0.50;;
30617;SDS011;17384;51.214;9.202;2023-04-24T11:44:51;0.60;;;0.60;;
30617;SDS011;17384;51.214;9.202;2023-04-24T11:47:19;0.60;;;0.60;;
30617;SDS011;17384;51.214;9.202;2023-04-24T11:49:44;0.50;;;0.50;;
30617;SDS011;17384;51.214;9.202;2023-04-24T11:52:10;1.85;;;0.90;;
30617;SDS011;17384;51.214;9.202;2023-04-24T11:54:36;0.50;;;0.50;;
30617;SDS011;17384;51.214;9.202;2023-04-24T11:57:04;0.40;;;0.40;;
30617;SDS011;17384;51.214;9.202;2023-04-24T11:59:35;0.45;;;0.45;;
30617;SDS011;17384;51.214;9.202;2023-04-24T12:02:02;0.90;;;0.50;;
30617;SDS011;17384;51.214;9.202;2023-04-24T12:04:37;0.40;;;0.40;;
30617;SDS011;17384;51.214;9.202;2023-04-24T12:07:04;0.60;;;0.60;;
30617;SDS011;17384;51.214;9.202;2023-04-24T12:12:22;0.95;;;0.68;;
30617;SDS011;17384;51.214;9.202;2023-04-24T12:14:54;0.88;;;0.50;;
30617;SDS011;17384;51.214;9.202;2023-04-24T12:17:30;0.60;;;0.60;;
30617;SDS011;17384;51.214;9.202;2023-04-24T12:19:57;0.70;;;0.70;;
30617;SDS011;17384;51.214;9.202;2023-04-24T12:22:28;0.60;;;0.60;;
30617;SDS011;17384;51.214;9.202;2023-04-24T12:25:12;0.68;;;0.68;;
30617;SDS011;17384;51.214;9.202;2023-04-24T12:27:37;0.60;;;0.60;;
30617;SDS011;17384;51.214;9.202;2023-04-24T12:30:03;1.17;;;0.68;;
30617;SDS011;17384;51.214;9.202;2023-04-24T12:32:30;0.60;;;0.60;;
30617;SDS011;17384;51.214;9.202;2023-04-24T12:34:56;0.60;;;0.60;;
30617;SDS011;17384;51.214;9.202;2023-04-24T12:37:24;0.60;;;0.60;;
30617;SDS011;17384;51.214;9.202;2023-04-24T12:40:10;0.45;;;0.45;;
30617;SDS011;17384;51.214;9.202;2023-04-24T12:42:44;0.60;;;0.60;;
30617;SDS011;17384;51.214;9.202;2023-04-24T12:45:13;0.60;;;0.60;;
30617;SDS011;17384;51.214;9.202;2023-04-24T12:47:40;0.60;;;0.60;;
30617;SDS011;17384;51.214;9.202;2023-04-24T12:50:07;0.60;;;0.60;;
30617;SDS011;17384;51.214;9.202;2023-04-24T12:52:36;0.50;;;0.50;;
30617;SDS011;17384;51.214;9.202;2023-04-24T12:55:03;0.50;;;0.50;;
30617;SDS011;17384;51.214;9.202;2023-04-24T12:57:29;0.55;;;0.55;;
30617;SDS011;17384;51.214;9.202;2023-04-24T12:59:56;0.60;;;0.60;;
30617;SDS011;17384;51.214;9.202;2023-04-24T13:02:27;2.05;;;0.60;;
30617;SDS011;17384;51.214;9.202;2023-04-24T13:04:54;0.50;;;0.50;;
30617;SDS011;17384;51.214;9.202;2023-04-24T13:07:20;0.45;;;0.45;;
30617;SDS011;17384;51.214;9.202;2023-04-24T13:09:47;0.60;;;0.60;;
30617;SDS011;17384;51.214;9.202;2023-04-24T13:12:13;0.50;;;0.50;;
30617;SDS011;17384;51.214;9.202;2023-04-24T13:14:39;0.43;;;0.43;;
30617;SDS011;17384;51.214;9.202;2023-04-24T13:17:05;0.57;;;0.57;;
30617;SDS011;17384;51.214;9.202;2023-04-24T13:19:35;0.35;;;0.35;;
30617;SDS011;17384;51.214;9.202;2023-04-24T13:22:03;0.60;;;0.47;;
30617;SDS011;17384;51.214;9.202;2023-04-24T13:24:29;0.77;;;0.50;;
30617;SDS011;17384;51.214;9.202;2023-04-24T13:26:56;0.60;;;0.60;;
30617;SDS011;17384;51.214;9.202;2023-04-24T13:29:22;1.50;;;0.60;;
30617;SDS011;17384;51.214;9.202;2023-04-24T13:31:49;0.73;;;0.73;;
30617;SDS011;17384;51.214;9.202;2023-04-24T13:34:16;0.60;;;0.60;;
30617;SDS011;17384;51.214;9.202;2023-04-24T13:36:42;0.65;;;0.65;;
30617;SDS011;17384;51.214;9.202;2023-04-24T13:39:08;1.30;;;0.60;;
30617;SDS011;17384;51.214;9.202;2023-04-24T13:41:33;1.02;;;0.90;;
30617;SDS011;17384;51.214;9.202;2023-04-24T13:44:01;0.80;;;0.80;;
30617;SDS011;17384;51.214;9.202;2023-04-24T13:46:26;0.88;;;0.88;;
30617;SDS011;17384;51.214;9.202;2023-04-24T13:48:52;0.75;;;0.75;;
30617;SDS011;17384;51.214;9.202;2023-04-24T13:51:17;0.70;;;0.70;;
30617;SDS011;17384;51.214;9.202;2023-04-24T13:53:43;2.58;;;0.80;;
30617;SDS011;17384;51.214;9.202;2023-04-24T13:56:08;0.90;;;0.90;;
30617;SDS011;17384;51.214;9.202;2023-04-24T13:58:34;1.27;;;1.00;;
30617;SDS011;17384;51.214;9.202;2023-04-24T14:01:02;1.83;;;1.20;;
30617;SDS011;17384;51.214;9.202;2023-04-24T14:03:28;6.13;;;1.70;;
30617;SDS011;17384;51.214;9.202;2023-04-24T14:05:53;3.28;;;1.50;;
30617;SDS011;17384;51.214;9.202;2023-04-24T14:08:19;2.08;;;1.38;;
30617;SDS011;17384;51.214;9.202;2023-04-24T14:10:44;2.40;;;1.63;;
30617;SDS011;17384;51.214;9.202;2023-04-24T14:13:10;2.97;;;2.05;;
30617;SDS011;17384;51.214;9.202;2023-04-24T14:15:36;5.72;;;2.60;;
30617;SDS011;17384;51.214;9.202;2023-04-24T14:18:01;3.92;;;2.10;;
30617;SDS011;17384;51.214;9.202;2023-04-24T14:20:28;4.30;;;1.80;;
30617;SDS011;17384;51.214;9.202;2023-04-24T14:22:53;3.50;;;2.50;;
30617;SDS011;17384;51.214;9.202;2023-04-24T14:25:19;4.85;;;1.80;;
30617;SDS011;17384;51.214;9.202;2023-04-24T14:27:44;2.72;;;1.65;;
30617;SDS011;17384;51.214;9.202;2023-04-24T14:30:10;5.97;;;2.35;;
30617;SDS011;17384;51.214;9.202;2023-04-24T14:32:38;3.85;;;2.42;;
30617;SDS011;17384;51.214;9.202;2023-04-24T14:35:04;5.55;;;2.80;;
30617;SDS011;17384;51.214;9.202;2023-04-24T14:37:30;4.38;;;2.50;;
30617;SDS011;17384;51.214;9.202;2023-04-24T14:39:56;5.43;;;2.50;;
30617;SDS011;17384;51.214;9.202;2023-04-24T14:42:21;12.30;;;2.70;;
30617;SDS011;17384;51.214;9.202;2023-04-24T14:44:47;5.65;;;2.25;;
30617;SDS011;17384;51.214;9.202;2023-04-24T14:47:12;6.03;;;2.70;;
30617;SDS011;17384;51.214;9.202;2023-04-24T14:49:38;7.35;;;2.72;;
30617;SDS011;17384;51.214;9.202;2023-04-24T14:52:03;8.85;;;2.65;;
30617;SDS011;17384;51.214;9.202;2023-04-24T14:54:29;7.85;;;3.15;;
30617;SDS011;17384;51.214;9.202;2023-04-24T14:56:55;11.43;;;2.50;;
30617;SDS011;17384;51.214;9.202;2023-04-24T14:59:24;5.30;;;2.67;;
30617;SDS011;17384;51.214;9.202;2023-04-24T15:01:49;5.72;;;2.95;;